Time,TemperatureF,DewpointF,PressureIn,WindDirection,WindDirectionDegrees,WindSpeedMPH,WindSpeedGustMPH,Humidity,HourlyPrecipIn,Conditions,Clouds,dailyrainin,SolarRadiationWatts/m^2,SoftwareType,DateUTC
2013-02-07 00:01:00,41.0,41.0,-100.00,NE,47,3.0,4.0,100,0.00,,,0.00,0.000000,,2013-02-07 08:01:00,
2013-02-07 00:11:00,41.0,41.0,-100.00,NE,47,3.0,4.0,100,0.00,,,0.00,0.000000,,2013-02-07 08:11:00,
2013-02-07 00:32:00,41.0,40.0,-100.00,ENE,62,7.0,9.0,98,0.00,,,0.00,0.000000,,2013-02-07 08:32:00,
2013-02-07 00:42:00,41.0,40.0,-100.00,ENE,62,7.0,9.0,98,0.00,,,0.00,0.000000,,2013-02-07 08:42:00,
2013-02-07 00:52:00,41.0,40.0,-100.00,ENE,62,7.0,9.0,98,0.00,,,0.00,0.000000,,2013-02-07 08:52:00,
2013-02-07 01:01:00,41.0,40.0,-100.00,ENE,62,7.0,9.0,98,0.00,,,0.00,0.000000,,2013-02-07 09:01:00,
2013-02-07 01:11:00,41.0,40.0,-100.00,ENE,62,7.0,9.0,98,0.00,,,0.00,0.000000,,2013-02-07 09:11:00,
2013-02-07 01:32:00,39.0,38.0,-100.00,ENE,70,3.0,8.0,95,0.00,,,0.00,0.000000,,2013-02-07 09:32:00,
2013-02-07 01:42:00,39.0,38.0,-100.00,ENE,70,3.0,8.0,95,0.00,,,0.00,0.000000,,2013-02-07 09:42:00,
2013-02-07 01:52:00,39.0,38.0,-100.00,ENE,70,3.0,8.0,95,0.00,,,0.00,0.000000,,2013-02-07 09:52:00,
2013-02-07 02:01:00,39.0,38.0,-100.00,ENE,70,3.0,8.0,95,0.00,,,0.00,0.000000,,2013-02-07 10:01:00,
2013-02-07 02:11:00,39.0,38.0,-100.00,ENE,70,3.0,8.0,95,0.00,,,0.00,0.000000,,2013-02-07 10:11:00,
2013-02-07 02:32:00,40.0,39.0,-100.00,East,80,6.0,8.0,95,0.00,,,0.00,0.000000,,2013-02-07 10:32:00,
2013-02-07 02:42:00,40.0,39.0,-100.00,East,80,6.0,8.0,95,0.00,,,0.00,0.000000,,2013-02-07 10:42:00,
2013-02-07 02:52:00,40.0,39.0,-100.00,East,80,6.0,8.0,95,0.00,,,0.00,0.000000,,2013-02-07 10:52:00,
2013-02-07 03:01:00,40.0,39.0,-100.00,East,80,6.0,8.0,95,0.00,,,0.00,0.000000,,2013-02-07 11:01:00,
2013-02-07 03:11:00,40.0,39.0,-100.00,East,80,6.0,8.0,95,0.00,,,0.00,0.000000,,2013-02-07 11:11:00,
2013-02-07 03:32:00,39.0,38.0,-100.00,ENE,58,3.0,8.0,97,0.00,,,0.00,0.000000,,2013-02-07 11:32:00,
2013-02-07 03:44:00,39.0,38.0,-100.00,ENE,58,3.0,8.0,97,0.00,,,0.00,0.000000,,2013-02-07 11:44:00,
2013-02-07 03:52:00,39.0,38.0,-100.00,ENE,58,3.0,8.0,97,0.00,,,0.00,0.000000,,2013-02-07 11:52:00,
2013-02-07 04:01:00,39.0,38.0,-100.00,ENE,58,3.0,8.0,97,0.00,,,0.00,0.000000,,2013-02-07 12:01:00,
2013-02-07 04:11:00,39.0,38.0,-100.00,ENE,58,3.0,8.0,97,0.00,,,0.00,0.000000,,2013-02-07 12:11:00,
2013-02-07 04:33:00,38.0,38.0,-100.00,NE,56,3.0,8.0,100,0.00,,,0.00,0.000000,,2013-02-07 12:33:00,
2013-02-07 04:42:00,38.0,38.0,-100.00,NE,56,3.0,8.0,100,0.00,,,0.00,0.000000,,2013-02-07 12:42:00,
2013-02-07 04:53:00,38.0,38.0,-100.00,NE,56,3.0,8.0,100,0.00,,,0.00,0.000000,,2013-02-07 12:53:00,
2013-02-07 05:02:00,38.0,38.0,-100.00,NE,56,3.0,8.0,100,0.00,,,0.00,0.000000,,2013-02-07 13:02:00,
2013-02-07 05:11:00,38.0,38.0,-100.00,NE,56,3.0,8.0,100,0.00,,,0.00,0.000000,,2013-02-07 13:11:00,
2013-02-07 05:32:00,37.0,36.0,-100.00,East,89,2.0,6.0,98,0.00,,,0.00,0.000000,,2013-02-07 13:32:00,
2013-02-07 05:42:00,37.0,36.0,-100.00,East,89,2.0,6.0,98,0.00,,,0.00,0.000000,,2013-02-07 13:42:00,
2013-02-07 05:52:00,37.0,36.0,-100.00,East,89,2.0,6.0,98,0.00,,,0.00,0.000000,,2013-02-07 13:52:00,
2013-02-07 06:01:00,37.0,36.0,-100.00,East,89,2.0,6.0,98,0.00,,,0.00,0.000000,,2013-02-07 14:01:00,
2013-02-07 06:11:00,37.0,36.0,-100.00,East,89,2.0,6.0,98,0.00,,,0.00,0.000000,,2013-02-07 14:11:00,
2013-02-07 06:32:00,39.0,39.0,-100.00,ENE,71,6.0,8.0,100,0.00,,,0.00,0.000000,,2013-02-07 14:32:00,
2013-02-07 06:42:00,39.0,39.0,-100.00,ENE,71,6.0,8.0,100,0.00,,,0.00,0.000000,,2013-02-07 14:42:00,
2013-02-07 06:52:00,39.0,39.0,-100.00,ENE,71,6.0,8.0,100,0.00,,,0.00,0.000000,,2013-02-07 14:52:00,
2013-02-07 07:01:00,39.0,39.0,-100.00,ENE,71,6.0,8.0,100,0.00,,,0.00,0.000000,,2013-02-07 15:01:00,
2013-02-07 07:11:00,39.0,39.0,-100.00,ENE,71,6.0,8.0,100,0.00,,,0.00,0.000000,,2013-02-07 15:11:00,
2013-02-07 07:32:00,38.0,34.0,-100.00,East,80,3.0,9.0,87,0.00,,,0.00,4.000000,,2013-02-07 15:32:00,
2013-02-07 07:42:00,38.0,34.0,-100.00,East,80,3.0,9.0,87,0.00,,,0.00,4.000000,,2013-02-07 15:42:00,
2013-02-07 07:52:00,38.0,34.0,-100.00,East,80,3.0,9.0,87,0.00,,,0.00,4.000000,,2013-02-07 15:52:00,
2013-02-07 08:01:00,38.0,34.0,-100.00,East,80,3.0,9.0,87,0.00,,,0.00,4.000000,,2013-02-07 16:01:00,
2013-02-07 08:11:00,38.0,34.0,-100.00,East,80,3.0,9.0,87,0.00,,,0.00,4.000000,,2013-02-07 16:11:00,
2013-02-07 08:32:00,41.0,40.0,-100.00,NE,43,2.0,7.0,96,0.00,,,0.00,69.000000,,2013-02-07 16:32:00,
2013-02-07 08:42:00,41.0,40.0,-100.00,NE,43,2.0,7.0,96,0.00,,,0.00,69.000000,,2013-02-07 16:42:00,
2013-02-07 08:52:00,41.0,40.0,-100.00,NE,43,2.0,7.0,96,0.00,,,0.00,69.000000,,2013-02-07 16:52:00,
2013-02-07 09:01:00,41.0,40.0,-100.00,NE,43,2.0,7.0,96,0.00,,,0.00,69.000000,,2013-02-07 17:01:00,
2013-02-07 09:11:00,41.0,40.0,-100.00,NE,43,2.0,7.0,96,0.00,,,0.00,69.000000,,2013-02-07 17:11:00,
2013-02-07 09:43:00,50.0,42.0,-100.00,WSW,242,2.0,4.0,74,0.00,,,0.00,319.000000,,2013-02-07 17:43:00,
2013-02-07 09:52:00,50.0,42.0,-100.00,WSW,242,2.0,4.0,74,0.00,,,0.00,319.000000,,2013-02-07 17:52:00,
2013-02-07 10:01:00,50.0,42.0,-100.00,WSW,242,2.0,4.0,74,0.00,,,0.00,319.000000,,2013-02-07 18:01:00,
2013-02-07 10:11:00,50.0,42.0,-100.00,WSW,242,2.0,4.0,74,0.00,,,0.00,319.000000,,2013-02-07 18:11:00,
2013-02-07 10:32:00,50.0,45.0,-100.00,WSW,241,5.0,10.0,82,0.00,,,0.00,491.000000,,2013-02-07 18:32:00,
2013-02-07 10:42:00,50.0,45.0,-100.00,WSW,241,5.0,10.0,82,0.00,,,0.00,491.000000,,2013-02-07 18:42:00,
2013-02-07 10:52:00,50.0,45.0,-100.00,WSW,241,5.0,10.0,82,0.00,,,0.00,491.000000,,2013-02-07 18:52:00,
2013-02-07 11:01:00,50.0,45.0,-100.00,WSW,241,5.0,10.0,82,0.00,,,0.00,491.000000,,2013-02-07 19:01:00,
2013-02-07 11:11:00,50.0,45.0,-100.00,WSW,241,5.0,10.0,82,0.00,,,0.00,491.000000,,2013-02-07 19:11:00,
2013-02-07 11:42:00,45.0,45.0,-100.00,West,263,7.0,10.0,99,0.00,,,0.00,260.000000,,2013-02-07 19:42:00,
2013-02-07 11:52:00,45.0,45.0,-100.00,West,263,7.0,10.0,99,0.00,,,0.00,260.000000,,2013-02-07 19:52:00,
2013-02-07 12:01:00,45.0,45.0,-100.00,West,263,7.0,10.0,99,0.00,,,0.00,260.000000,,2013-02-07 20:01:00,
2013-02-07 12:11:00,45.0,45.0,-100.00,West,263,7.0,10.0,99,0.00,,,0.00,260.000000,,2013-02-07 20:11:00,
2013-02-07 12:32:00,43.0,43.0,-100.00,North,356,3.0,10.0,100,0.00,,,0.00,79.000000,,2013-02-07 20:32:00,
2013-02-07 12:42:00,43.0,43.0,-100.00,North,356,3.0,10.0,100,0.00,,,0.00,79.000000,,2013-02-07 20:42:00,
2013-02-07 12:52:00,43.0,43.0,-100.00,North,356,3.0,10.0,100,0.00,,,0.00,79.000000,,2013-02-07 20:52:00,
2013-02-07 13:01:00,43.0,43.0,-100.00,North,356,3.0,10.0,100,0.00,,,0.00,79.000000,,2013-02-07 21:01:00,
2013-02-07 13:11:00,43.0,43.0,-100.00,North,356,3.0,10.0,100,0.00,,,0.00,79.000000,,2013-02-07 21:11:00,
2013-02-07 13:42:00,45.0,45.0,-100.00,SSW,213,4.0,8.0,100,0.00,,,0.00,89.000000,,2013-02-07 21:42:00,
2013-02-07 13:52:00,45.0,45.0,-100.00,SSW,213,4.0,8.0,100,0.00,,,0.00,89.000000,,2013-02-07 21:52:00,
2013-02-07 14:01:00,45.0,45.0,-100.00,SSW,213,4.0,8.0,100,0.00,,,0.00,89.000000,,2013-02-07 22:01:00,
2013-02-07 14:11:00,45.0,45.0,-100.00,SSW,213,4.0,8.0,100,0.00,,,0.00,89.000000,,2013-02-07 22:11:00,
2013-02-07 14:32:00,45.0,45.0,-100.00,North,352,3.0,7.0,100,0.00,,,0.00,62.000000,,2013-02-07 22:32:00,
2013-02-07 14:42:00,45.0,45.0,-100.00,North,352,3.0,7.0,100,0.00,,,0.00,62.000000,,2013-02-07 22:42:00,
2013-02-07 14:52:00,45.0,45.0,-100.00,North,352,3.0,7.0,100,0.00,,,0.00,62.000000,,2013-02-07 22:52:00,
2013-02-07 15:01:00,45.0,45.0,-100.00,North,352,3.0,7.0,100,0.00,,,0.00,62.000000,,2013-02-07 23:01:00,
2013-02-07 15:11:00,45.0,45.0,-100.00,North,352,3.0,7.0,100,0.00,,,0.00,62.000000,,2013-02-07 23:11:00,
2013-02-07 15:42:00,50.0,45.0,-100.00,ESE,123,4.0,10.0,82,0.00,,,0.00,314.000000,,2013-02-07 23:42:00,
2013-02-07 15:52:00,50.0,45.0,-100.00,ESE,123,4.0,10.0,82,0.00,,,0.00,314.000000,,2013-02-07 23:52:00,
2013-02-07 16:01:00,50.0,45.0,-100.00,ESE,123,4.0,10.0,82,0.00,,,0.00,314.000000,,2013-02-08 00:01:00,
2013-02-07 16:11:00,50.0,45.0,-100.00,ESE,123,4.0,10.0,82,0.00,,,0.00,314.000000,,2013-02-08 00:11:00,
2013-02-07 17:52:00,47.0,42.0,-100.00,West,266,1.0,11.0,82,0.00,,,0.00,112.000000,,2013-02-08 01:52:00,
2013-02-07 18:01:00,47.0,42.0,-100.00,West,266,1.0,11.0,82,0.00,,,0.00,112.000000,,2013-02-08 02:01:00,
2013-02-07 18:11:00,47.0,42.0,-100.00,West,266,1.0,11.0,82,0.00,,,0.00,112.000000,,2013-02-08 02:11:00,
2013-02-07 18:42:00,42.0,41.0,-100.00,NE,37,3.0,7.0,96,0.00,,,0.00,4.000000,,2013-02-08 02:42:00,
2013-02-07 18:52:00,42.0,41.0,-100.00,NE,37,3.0,7.0,96,0.00,,,0.00,4.000000,,2013-02-08 02:52:00,
2013-02-07 19:01:00,42.0,41.0,-100.00,NE,37,3.0,7.0,96,0.00,,,0.00,4.000000,,2013-02-08 03:01:00,
2013-02-07 19:12:00,42.0,41.0,-100.00,NE,37,3.0,7.0,96,0.00,,,0.00,4.000000,,2013-02-08 03:12:00,
2013-02-07 19:32:00,42.0,41.0,-100.00,ESE,106,2.0,6.0,97,0.00,,,0.00,0.000000,,2013-02-08 03:32:00,
2013-02-07 19:42:00,42.0,41.0,-100.00,ESE,106,2.0,6.0,97,0.00,,,0.00,0.000000,,2013-02-08 03:42:00,
2013-02-07 19:52:00,42.0,41.0,-100.00,ESE,106,2.0,6.0,97,0.00,,,0.00,0.000000,,2013-02-08 03:52:00,
2013-02-07 20:01:00,42.0,41.0,-100.00,ESE,106,2.0,6.0,97,0.00,,,0.00,0.000000,,2013-02-08 04:01:00,
2013-02-07 20:11:00,42.0,41.0,-100.00,ESE,106,2.0,6.0,97,0.00,,,0.00,0.000000,,2013-02-08 04:11:00,
2013-02-07 20:32:00,41.0,41.0,-100.00,NE,52,2.0,5.0,100,0.00,,,0.00,0.000000,,2013-02-08 04:32:00,
2013-02-07 20:42:00,41.0,41.0,-100.00,NE,52,2.0,5.0,100,0.00,,,0.00,0.000000,,2013-02-08 04:42:00,
2013-02-07 20:52:00,41.0,41.0,-100.00,NE,52,2.0,5.0,100,0.00,,,0.00,0.000000,,2013-02-08 04:52:00,
2013-02-07 21:01:00,41.0,41.0,-100.00,NE,52,2.0,5.0,100,0.00,,,0.00,0.000000,,2013-02-08 05:01:00,
2013-02-07 21:11:00,41.0,41.0,-100.00,NE,52,2.0,5.0,100,0.00,,,0.00,0.000000,,2013-02-08 05:11:00,
2013-02-07 21:32:00,41.0,40.0,-100.00,NE,48,6.0,9.0,97,0.00,,,0.00,0.000000,,2013-02-08 05:32:00,
2013-02-07 21:42:00,41.0,40.0,-100.00,NE,48,6.0,9.0,97,0.00,,,0.00,0.000000,,2013-02-08 05:42:00,
2013-02-07 21:52:00,41.0,40.0,-100.00,NE,48,6.0,9.0,97,0.00,,,0.00,0.000000,,2013-02-08 05:52:00,
2013-02-07 22:01:00,41.0,40.0,-100.00,NE,48,6.0,9.0,97,0.00,,,0.00,0.000000,,2013-02-08 06:01:00,
2013-02-07 22:11:00,41.0,40.0,-100.00,NE,48,6.0,9.0,97,0.00,,,0.00,0.000000,,2013-02-08 06:11:00,
2013-02-07 22:32:00,41.0,40.0,-100.00,SSE,165,1.0,8.0,98,0.00,,,0.00,0.000000,,2013-02-08 06:32:00,
2013-02-07 22:42:00,41.0,40.0,-100.00,SSE,165,1.0,8.0,98,0.00,,,0.00,0.000000,,2013-02-08 06:42:00,
2013-02-07 22:52:00,41.0,40.0,-100.00,SSE,165,1.0,8.0,98,0.00,,,0.00,0.000000,,2013-02-08 06:52:00,
2013-02-07 23:01:00,41.0,40.0,-100.00,SSE,165,1.0,8.0,98,0.00,,,0.00,0.000000,,2013-02-08 07:01:00,
2013-02-07 23:11:00,41.0,40.0,-100.00,SSE,165,1.0,8.0,98,0.00,,,0.00,0.000000,,2013-02-08 07:11:00,
2013-02-07 23:32:00,41.0,41.0,-100.00,WSW,258,3.0,6.0,100,0.02,,,0.02,0.000000,,2013-02-08 07:32:00,
2013-02-07 23:42:00,41.0,41.0,-100.00,WSW,258,3.0,6.0,100,0.02,,,0.02,0.000000,,2013-02-08 07:42:00,
2013-02-07 23:52:00,41.0,41.0,-100.00,WSW,258,3.0,6.0,100,0.02,,,0.02,0.000000,,2013-02-08 07:52:00,